Mishawaka, Indiana
Current Conditions -  °F | °C
As of 10:54 AM on Saturday 20 Dec 2014 (Local Time) from KSBN Reporting Station
Haze Haze  
Wind Chill: 24°   Ceiling: 3000
Heat Index: 31°   Visibility: 6mi
Dew Point: 25°   Wind: 7mph
Humidity: 79%   Direction: 240°WSW
Pressure: 30.29"   Gusts: NA
Location:  41.66°N, 86.18°W
Report Text: KSBN 201554Z 24006KT 6SM HZ OVC030 M01/M04 A3029 RMK AO2 SLP267 T10061039
Loading
Personal Weather Stations






























Interactive Weather Map New forecast layout! Learn more

10-Day Weather Forecast

Advertisements
Track Severe Weather on mobile